Terminal Aerodrome Forecast
Issued by NWS

Home | Current Version | Previous Version | Text Only | Print | Product List | Glossary On
Versions: 1 2 3 4 5 6 7 8 9 10 11 12 13 14 15 16 17 18 19 20 21 22 23 24 25 26 27 28 29 30 31 32 33 34
000
FTUS41 KCAR 241900 AAA
TAFHUL
TAF AMD
KHUL 241929Z 2419/2518 36013G22KT 6SM -SNRA OVC009
     FM242100 36013G22KT 2SM -SN OVC009
     FM250400 36010KT P6SM OVC008
     FM251200 34008KT P6SM BKN015
     FM251500 33006KT P6SM SCT035=

USA.gov is the U.S. government's official web portal to all federal, state and local government web resources and services.